createdAt,value
2023-03-01T03:39:06.852Z,5.50
2023-03-01T03:59:40.206Z,6.33
2023-03-01T04:06:04.531Z,7.80
2023-03-01T04:12:55.964Z,8.60
2023-03-01T04:15:31.344Z,5.60
2023-03-01T04:18:01.745Z,4.80
2023-03-01T04:20:41.591Z,9.00
2023-03-01T04:23:22.890Z,5.60
2023-03-01T04:25:58.222Z,9.20
2023-03-01T04:28:40.611Z,8.00
2023-03-01T04:34:42.706Z,7.00
2023-03-01T04:52:05.489Z,4.00
2023-03-01T05:19:24.073Z,6.00
2023-03-01T05:22:07.867Z,2.20
2023-03-01T05:24:36.766Z,6.00
2023-03-01T05:27:09.225Z,5.60
2023-03-01T05:29:39.527Z,4.00
2023-03-01T05:32:07.052Z,4.80
2023-03-01T05:34:37.064Z,3.20
2023-03-01T05:37:04.855Z,3.00
2023-03-01T05:39:32.880Z,4.00
2023-03-01T05:42:02.424Z,5.60
2023-03-01T05:44:30.505Z,3.20
2023-03-01T05:46:58.599Z,3.80
2023-03-01T05:49:26.252Z,5.40
2023-03-01T05:51:55.040Z,4.00
2023-03-01T05:54:23.441Z,2.00
2023-03-01T05:56:51.554Z,4.40
2023-03-01T05:59:19.127Z,4.20
2023-03-01T06:01:46.589Z,5.00
2023-03-01T06:04:14.471Z,1.00
2023-03-01T06:06:47.504Z,3.00
2023-03-01T06:09:20.910Z,2.60
2023-03-01T06:12:31.055Z,1.60
2023-03-01T06:15:18.154Z,6.80
2023-03-01T06:18:09.248Z,3.60
2023-03-01T06:20:45.395Z,5.00
2023-03-01T06:23:17.699Z,4.80
2023-03-01T06:25:55.953Z,11.00
2023-03-01T06:28:33.123Z,2.00
2023-03-01T06:31:14.284Z,6.60
2023-03-01T06:34:19.773Z,3.80
2023-03-01T06:36:57.756Z,4.00
2023-03-01T06:39:33.851Z,7.20
2023-03-01T06:42:03.030Z,5.00
2023-03-01T06:44:39.697Z,2.00
2023-03-01T06:47:09.282Z,3.40
2023-03-01T06:49:55.164Z,2.00
2023-03-01T06:52:25.923Z,4.40
2023-03-01T07:05:17.311Z,3.50
2023-03-01T07:22:34.994Z,0.33
2023-03-01T07:25:15.710Z,1.00
2023-03-01T07:31:03.007Z,0.80
2023-03-01T07:33:40.085Z,1.00
2023-03-01T07:36:29.004Z,0.80
2023-03-01T07:39:06.367Z,0.00
2023-03-01T07:41:40.166Z,0.80
2023-03-01T07:44:12.496Z,1.00
2023-03-01T07:46:40.865Z,1.40
2023-03-01T07:49:12.485Z,1.00
2023-03-01T07:51:47.206Z,0.80
2023-03-01T07:54:33.019Z,1.20
2023-03-01T07:57:13.850Z,1.00
2023-03-01T07:59:51.360Z,2.80
2023-03-01T08:02:19.712Z,0.40
2023-03-01T08:04:51.282Z,0.20
2023-03-01T08:07:22.916Z,0.00
2023-03-01T08:09:50.726Z,0.00
2023-03-01T08:12:21.890Z,1.00
2023-03-01T08:15:01.319Z,1.40
2023-03-01T08:17:35.786Z,1.20
2023-03-01T08:20:16.090Z,0.60
2023-03-01T08:23:05.781Z,0.00
2023-03-01T08:33:13.373Z,1.00
2023-03-01T08:45:13.028Z,1.00
2023-03-01T08:47:49.360Z,0.75
2023-03-01T08:50:23.300Z,1.25
2023-03-01T08:52:56.116Z,1.75
2023-03-01T08:55:39.722Z,0.00
2023-03-01T08:58:21.525Z,1.00
2023-03-01T09:01:09.850Z,0.50
2023-03-01T09:06:56.486Z,0.75
2023-03-01T09:09:34.108Z,0.00
2023-03-01T09:12:12.360Z,0.00
2023-03-01T09:15:16.943Z,0.00
2023-03-01T09:17:52.969Z,0.50
2023-03-01T09:20:33.349Z,0.00
2023-03-01T09:23:01.668Z,0.75
2023-03-01T09:25:29.656Z,1.00
2023-03-01T09:28:29.456Z,0.00
2023-03-01T09:34:24.580Z,0.00
2023-03-01T09:36:55.152Z,0.00
2023-03-01T09:39:28.316Z,1.00
2023-03-01T09:49:35.101Z,0.75
2023-03-01T09:52:29.867Z,1.00
2023-03-01T09:55:19.495Z,0.25
2023-03-01T09:58:00.444Z,1.50
2023-03-01T10:00:51.057Z,0.50
2023-03-01T10:03:51.106Z,0.50
2023-03-01T10:06:42.848Z,0.25
2023-03-01T10:09:17.332Z,0.75
2023-03-01T10:12:01.033Z,0.00
2023-03-01T10:18:43.561Z,0.00
2023-03-01T10:21:21.075Z,0.00
2023-03-01T10:23:53.537Z,0.00
2023-03-01T10:26:36.687Z,1.25
2023-03-01T10:29:06.437Z,0.00
2023-03-01T10:31:51.447Z,0.00
2023-03-01T10:34:38.228Z,0.00
2023-03-01T10:37:28.005Z,1.25
2023-03-01T10:40:06.924Z,0.50
2023-03-01T10:46:38.312Z,0.00
2023-03-01T10:49:25.991Z,0.00
2023-03-01T10:51:55.486Z,0.00
2023-03-01T10:54:32.053Z,0.00
2023-03-01T10:57:02.556Z,0.00
2023-03-01T10:59:39.084Z,0.00
2023-03-01T11:02:25.534Z,0.00
2023-03-01T11:05:03.051Z,1.00
2023-03-01T11:07:54.460Z,2.40
2023-03-01T11:13:39.546Z,2.00
2023-03-01T11:16:12.992Z,1.00
2023-03-01T11:18:48.260Z,1.20
2023-03-01T11:21:20.812Z,4.00
2023-03-01T11:23:48.784Z,5.00
2023-03-01T11:26:18.526Z,2.40
2023-03-01T11:28:54.033Z,3.20
2023-03-01T11:31:23.312Z,3.40
2023-03-01T11:33:53.739Z,8.20
2023-03-01T11:36:36.314Z,7.40
2023-03-01T11:39:16.012Z,6.00
2023-03-01T11:41:43.998Z,3.00
2023-03-01T11:44:21.690Z,5.80
2023-03-01T11:47:14.544Z,1.00
2023-03-01T11:50:27.108Z,4.00
2023-03-01T11:53:16.159Z,3.00
2023-03-01T11:55:54.117Z,2.40
2023-03-01T11:59:10.265Z,2.60
2023-03-01T12:02:02.083Z,0.20
2023-03-01T12:04:32.983Z,1.00
2023-03-01T12:07:21.006Z,1.00
2023-03-01T12:09:54.920Z,1.80
2023-03-01T12:12:45.569Z,1.00
2023-03-01T12:15:40.590Z,0.00
2023-03-01T12:18:28.565Z,0.00
2023-03-01T12:21:37.609Z,0.00
2023-03-01T12:24:29.166Z,0.00
2023-03-01T12:27:34.060Z,0.20
2023-03-01T12:30:41.368Z,0.20
2023-03-01T12:33:18.733Z,0.00
2023-03-01T12:36:24.312Z,0.00
2023-03-01T12:39:00.077Z,0.00
2023-03-01T12:42:03.164Z,0.20
2023-03-01T12:44:56.815Z,0.80
2023-03-01T12:47:53.769Z,0.00
2023-03-01T12:50:43.922Z,0.00
2023-03-01T12:53:25.993Z,1.00
2023-03-01T12:56:06.530Z,0.00
2023-03-01T12:58:58.664Z,0.20
2023-03-01T13:01:50.203Z,0.00
2023-03-01T13:04:39.605Z,0.40
2023-03-01T13:07:22.885Z,0.00
2023-03-01T13:10:18.531Z,0.00
2023-03-01T13:12:53.933Z,0.00
2023-03-01T13:15:24.656Z,0.60
2023-03-01T13:17:57.083Z,0.00
2023-03-01T13:20:31.795Z,0.00
2023-03-01T13:23:15.645Z,0.00
2023-03-01T13:26:03.736Z,1.00
2023-03-01T13:28:37.395Z,0.80
2023-03-01T13:31:07.381Z,0.60
2023-03-01T13:33:48.940Z,0.80
2023-03-01T13:36:33.905Z,0.00
2023-03-01T13:39:04.197Z,0.00
2023-03-01T13:41:43.721Z,0.60
2023-03-01T13:44:34.567Z,1.00
2023-03-01T13:47:08.167Z,0.00
2023-03-01T13:49:52.076Z,1.00
2023-03-01T13:52:41.980Z,0.80
2023-03-01T13:55:15.307Z,0.00
2023-03-01T13:57:47.642Z,0.00
2023-03-01T14:00:38.526Z,1.00
2023-03-01T14:03:19.816Z,1.00
2023-03-01T14:06:15.944Z,0.80
2023-03-01T14:08:47.604Z,0.60
2023-03-01T14:11:27.587Z,0.00
2023-03-01T14:14:38.243Z,0.40
2023-03-01T14:17:11.605Z,0.60
2023-03-01T14:19:39.290Z,1.00
2023-03-01T14:22:22.487Z,0.60
2023-03-01T14:25:02.787Z,0.60
2023-03-01T14:27:43.631Z,0.20
2023-03-01T14:30:29.377Z,0.00
2023-03-01T14:33:10.163Z,0.80
2023-03-01T14:35:49.016Z,1.00
2023-03-01T14:38:51.438Z,1.00
2023-03-01T14:41:40.592Z,0.00
2023-03-01T14:44:29.884Z,0.80
2023-03-01T14:47:32.764Z,0.60
2023-03-01T14:53:51.188Z,0.40
2023-03-01T14:56:39.820Z,1.00
2023-03-01T14:59:23.283Z,0.00
2023-03-01T15:02:07.929Z,0.40
2023-03-01T15:04:50.326Z,1.00
2023-03-01T15:07:25.684Z,1.00
2023-03-01T15:09:54.851Z,0.40
2023-03-01T15:16:41.331Z,1.00
2023-03-01T15:22:36.565Z,0.67
2023-03-01T15:25:04.886Z,1.00
2023-03-01T15:27:47.736Z,0.00
2023-03-01T15:30:26.032Z,0.20
2023-03-01T15:33:32.036Z,0.60
2023-03-01T15:36:05.380Z,0.80
2023-03-01T15:38:39.034Z,1.20
2023-03-01T15:41:33.178Z,1.80
2023-03-01T15:44:34.958Z,1.60
2023-03-01T15:47:35.207Z,1.00
2023-03-01T15:50:17.345Z,0.80
2023-03-01T15:52:55.844Z,2.00
2023-03-01T15:59:16.687Z,0.80
2023-03-01T16:12:21.829Z,0.20
2023-03-01T16:28:44.375Z,0.80
2023-03-01T16:45:00.131Z,1.00
2023-03-01T17:10:53.027Z,1.00
2023-03-01T17:25:14.042Z,0.80
2023-03-01T17:31:05.583Z,1.00
2023-03-01T17:34:48.777Z,1.40
2023-03-01T18:12:30.956Z,6.40
2023-03-01T18:15:13.036Z,5.20
2023-03-01T18:21:49.649Z,1.00
2023-03-01T18:25:16.992Z,2.00
2023-03-01T18:27:49.653Z,3.60
2023-03-01T18:34:13.026Z,3.40
2023-03-01T18:57:33.651Z,3.40
2023-03-01T19:09:11.267Z,4.00
2023-03-01T19:11:48.044Z,3.00
2023-03-01T19:14:19.233Z,3.80
2023-03-01T19:16:47.757Z,6.20
2023-03-01T19:22:34.247Z,6.00
2023-03-01T19:25:30.049Z,9.60
2023-03-01T19:28:11.505Z,10.00
2023-03-01T19:31:35.396Z,4.80
2023-03-01T19:34:37.376Z,5.60
2023-03-01T19:37:07.415Z,9.00
2023-03-01T19:39:37.823Z,4.80
2023-03-01T19:42:06.451Z,4.00
2023-03-01T19:44:34.513Z,4.00
2023-03-01T19:55:14.333Z,4.40
2023-03-01T19:58:35.059Z,4.00
2023-03-01T20:01:06.796Z,3.75
2023-03-01T20:04:43.502Z,3.80
2023-03-01T20:07:13.411Z,3.00
